Time;durP1;ratioP1;P1;durP2;ratioP2;P2;SDS_P1;SDS_P2;PMS_P1;PMS_P2;Temp;Humidity;BMP_temperature;BMP_pressure;BME280_temperature;BME280_humidity;BME280_pressure;Samples;Min_cycle;Max_cycle;Signal;HPM_P1;HPM_P2
2021/01/22 20:34:32;;;;;;;39.42;19.10;;;;;;;3.95;100.00;98491.22;5071478;27;20412;-67
2021/01/22 20:37:18;;;;;;;31.35;17.73;;;;;;;3.97;100.00;98494.53;5069744;28;20055;-67
2021/01/22 20:40:03;;;;;;;28.85;15.55;;;;;;;4.06;100.00;98512.94;5069388;28;20047;-68
2021/01/22 20:42:47;;;;;;;19.10;11.63;;;;;;;4.04;100.00;98527.25;5069638;28;20085;-68
2021/01/22 20:45:32;;;;;;;20.77;10.85;;;;;;;4.06;100.00;98530.56;5070607;28;20496;-68
2021/01/22 20:48:16;;;;;;;15.63;9.70;;;;;;;4.09;100.00;98532.91;5069452;28;20094;-68
2021/01/22 20:51:00;;;;;;;14.75;8.43;;;;;;;4.01;100.00;98543.34;5070515;28;20067;-68
2021/01/22 20:53:44;;;;;;;16.00;9.05;;;;;;;4.01;100.00;98538.06;5070339;28;20047;-68
2021/01/22 20:56:28;;;;;;;13.30;7.72;;;;;;;3.94;100.00;98548.38;5070101;28;20059;-67
2021/01/22 20:59:13;;;;;;;11.10;6.65;;;;;;;3.97;100.00;98552.53;5069926;28;20174;-69
2021/01/22 21:01:57;;;;;;;9.98;5.75;;;;;;;3.97;100.00;98541.97;5070257;28;20555;-68
2021/01/22 21:04:42;;;;;;;6.70;4.80;;;;;;;3.83;100.00;98561.72;5070080;28;20048;-68
2021/01/22 21:07:26;;;;;;;8.50;5.10;;;;;;;3.91;100.00;98553.09;5069861;28;20059;-68
2021/01/22 21:10:11;;;;;;;7.22;4.97;;;;;;;3.91;100.00;98555.72;5069848;28;20043;-68
2021/01/22 21:12:55;;;;;;;7.43;4.93;;;;;;;3.88;100.00;98561.31;5069656;28;20562;-69
2021/01/22 21:15:39;;;;;;;8.20;4.47;;;;;;;3.85;100.00;98564.22;5069706;28;20163;-68
2021/01/22 21:18:24;;;;;;;9.07;5.03;;;;;;;3.87;100.00;98559.63;5069818;28;20048;-68
2021/01/22 21:21:08;;;;;;;7.43;4.18;;;;;;;3.77;100.00;98566.75;5069547;28;20136;-68
2021/01/22 21:23:52;;;;;;;11.98;6.20;;;;;;;3.83;100.00;98566.16;5069855;28;20044;-68
2021/01/22 21:26:36;;;;;;;;;;;;;;;3.85;100.00;98564.22;5069163;28;20052;-68
2021/01/22 21:29:20;;;;;;;9.57;4.82;;;;;;;3.82;100.00;98559.22;5069588;28;19919;-68
2021/01/22 21:32:04;;;;;;;8.13;4.30;;;;;;;3.81;100.00;98553.13;5069539;28;20190;-67
2021/01/22 21:34:50;;;;;;;6.30;3.80;;;;;;;3.79;100.00;98556.88;5069361;28;20125;-68
2021/01/22 21:37:35;;;;;;;6.93;3.70;;;;;;;3.78;100.00;98556.06;5069412;28;20429;-68
2021/01/22 21:40:19;;;;;;;6.55;3.22;;;;;;;3.73;100.00;98552.16;5068414;28;20102;-68
2021/01/22 21:43:04;;;;;;;5.97;3.50;;;;;;;3.72;100.00;98555.78;5068346;28;20571;-68
2021/01/22 21:45:48;;;;;;;5.50;3.58;;;;;;;3.72;100.00;98558.41;5056319;28;20056;-68
2021/01/22 21:48:32;;;;;;;5.85;3.83;;;;;;;3.75;100.00;98553.69;5055173;28;20563;-68
2021/01/22 21:51:17;;;;;;;7.82;3.60;;;;;;;3.75;100.00;98556.34;5054919;28;20107;-68
2021/01/22 21:54:02;;;;;;;3.40;2.45;;;;;;;3.77;100.00;98556.19;5055937;28;20110;-68
2021/01/22 21:56:46;;;;;;;4.18;2.13;;;;;;;3.75;100.00;98548.44;5055936;28;20528;-68
2021/01/22 21:59:30;;;;;;;4.68;2.60;;;;;;;3.75;100.00;98547.63;5054588;28;20047;-68
2021/01/22 22:02:14;;;;;;;3.38;2.15;;;;;;;3.73;100.00;98554.81;5042166;28;20128;-68
2021/01/22 22:04:58;;;;;;;5.07;2.20;;;;;;;3.70;100.00;98560.38;5055829;28;20040;-68
2021/01/22 22:07:43;;;;;;;3.20;1.95;;;;;;;3.74;100.00;98552.03;5054457;28;20532;-68
2021/01/22 22:10:27;;;;;;;2.53;2.15;;;;;;;3.76;100.00;98560.63;5055311;28;20405;-67
2021/01/22 22:13:11;;;;;;;2.22;1.90;;;;;;;3.66;100.00;98559.00;5054303;28;20095;-68
2021/01/22 22:15:55;;;;;;;3.15;2.50;;;;;;;3.71;100.00;98567.28;5040554;28;20063;-68
2021/01/22 22:18:39;;;;;;;4.07;2.45;;;;;;;3.68;100.00;98570.22;5054254;28;20075;-68
2021/01/22 22:21:23;;;;;;;3.03;2.30;;;;;;;3.64;100.00;98566.22;5055494;28;20051;-67
2021/01/22 22:24:07;;;;;;;4.68;2.92;;;;;;;3.64;100.00;98576.78;5055421;28;20047;-68
2021/01/22 22:26:51;;;;;;;6.57;3.13;;;;;;;3.58;100.00;98577.31;5055111;28;20168;-68
2021/01/22 22:29:36;;;;;;;8.38;3.40;;;;;;;3.56;100.00;98580.09;5040119;28;20071;-68
2021/01/22 22:32:20;;;;;;;4.60;3.38;;;;;;;3.53;100.00;98587.47;5054838;28;20413;-67
2021/01/22 22:35:05;;;;;;;5.43;3.30;;;;;;;3.51;100.00;98584.97;5054954;28;20102;-67
2021/01/22 22:37:49;;;;;;;5.75;3.78;;;;;;;3.50;100.00;98593.00;5054227;28;20147;-67
2021/01/22 22:40:33;;;;;;;8.30;3.67;;;;;;;3.55;100.00;98593.41;5053914;28;20068;-68
2021/01/22 22:43:17;;;;;;;5.97;4.20;;;;;;;3.53;100.00;98601.44;5055070;28;20040;-68
2021/01/22 22:46:02;;;;;;;6.28;4.20;;;;;;;3.51;100.00;98600.75;5055040;28;20048;-68
2021/01/22 22:48:46;;;;;;;5.15;4.00;;;;;;;3.55;100.00;98603.97;5054170;28;20464;-68
2021/01/22 22:51:31;;;;;;;5.18;3.22;;;;;;;3.55;100.00;98609.22;5053977;28;20060;-68
2021/01/22 22:54:14;;;;;;;5.28;3.97;;;;;;;3.54;100.00;98615.47;5054559;28;20052;-67
2021/01/22 22:57:00;;;;;;;6.30;4.22;;;;;;;3.50;100.00;98614.06;5053102;28;20103;-68
2021/01/22 22:59:44;;;;;;;5.57;3.92;;;;;;;3.52;100.00;98630.56;5054393;28;20056;-68
2021/01/22 23:02:28;;;;;;;5.57;3.70;;;;;;;3.52;100.00;98620.03;5054426;28;20086;-68
2021/01/22 23:05:12;;;;;;;5.38;3.40;;;;;;;3.51;100.00;98628.91;5054405;28;20525;-68
2021/01/22 23:07:57;;;;;;;5.05;3.45;;;;;;;3.48;100.00;98637.94;5053348;28;20044;-68
2021/01/22 23:10:40;;;;;;;4.88;3.05;;;;;;;3.50;100.00;98632.50;5054298;28;20055;-68
2021/01/22 23:13:25;;;;;;;4.97;3.45;;;;;;;3.50;100.00;98637.78;5053479;28;20409;-68
2021/01/22 23:16:09;;;;;;;4.50;3.50;;;;;;;3.49;100.00;98641.38;5039114;28;20110;-67
2021/01/22 23:18:54;;;;;;;4.55;3.05;;;;;;;3.45;100.00;98643.47;5053203;28;20055;-68
2021/01/22 23:21:38;;;;;;;5.20;3.05;;;;;;;3.54;100.00;98654.97;5054345;28;20048;-68
2021/01/22 23:24:21;;;;;;;4.22;2.65;;;;;;;3.58;100.00;98659.00;5053073;28;20405;-68
2021/01/22 23:27:06;;;;;;;4.22;3.10;;;;;;;3.53;100.00;98661.22;5054234;28;20052;-68
2021/01/22 23:29:50;;;;;;;4.25;2.92;;;;;;;3.51;100.00;98665.78;5054109;28;20048;-68
2021/01/22 23:32:35;;;;;;;4.68;3.25;;;;;;;3.47;100.00;98669.66;5053783;28;20190;-68
2021/01/22 23:35:20;;;;;;;4.75;2.88;;;;;;;3.46;100.00;98676.72;5053130;28;20067;-68
2021/01/22 23:38:03;;;;;;;3.67;3.00;;;;;;;3.56;100.00;98680.19;5053024;28;20134;-68
2021/01/22 23:40:48;;;;;;;4.43;2.88;;;;;;;3.55;100.00;98683.00;5053684;28;20144;-68
2021/01/22 23:43:33;;;;;;;3.53;2.65;;;;;;;3.61;100.00;98687.69;5053939;28;20047;-69
2021/01/22 23:46:17;;;;;;;3.92;3.10;;;;;;;3.55;100.00;98693.53;5053874;28;20512;-68
2021/01/22 23:49:01;;;;;;;3.28;2.63;;;;;;;3.60;100.00;98696.56;5053054;28;20103;-68
2021/01/22 23:51:45;;;;;;;3.20;2.45;;;;;;;3.63;100.00;98709.44;5052867;28;20142;-68
2021/01/22 23:54:29;;;;;;;2.35;1.98;;;;;;;3.67;100.00;98702.94;5053526;28;20048;-68
2021/01/22 23:57:13;;;;;;;3.25;2.33;;;;;;;3.73;100.00;98707.66;5053434;28;20052;-68
2021/01/22 23:59:58;;;;;;;2.95;2.45;;;;;;;3.71;100.00;98725.41;5053595;28;20048;-69
